createdAt,value
2018-02-09T00:01:05.827Z,-0.80
2018-02-09T00:03:33.563Z,-0.80
2018-02-09T00:06:01.043Z,-0.80
2018-02-09T00:08:28.503Z,-0.80
2018-02-09T00:10:56.242Z,-0.80
2018-02-09T00:13:23.912Z,-0.80
2018-02-09T00:15:51.391Z,-0.90
2018-02-09T00:18:18.859Z,-1.00
2018-02-09T00:20:46.322Z,-1.00
2018-02-09T00:23:13.782Z,-1.00
2018-02-09T00:25:41.284Z,-1.00
2018-02-09T00:28:08.751Z,-1.10
2018-02-09T00:30:36.423Z,-1.10
2018-02-09T00:33:03.967Z,-1.20
2018-02-09T00:35:31.438Z,-1.30
2018-02-09T00:37:59.126Z,-1.40
2018-02-09T00:40:26.592Z,-1.60
2018-02-09T00:42:54.099Z,-1.70
2018-02-09T00:45:21.579Z,-1.80
2018-02-09T00:47:49.313Z,-1.80
2018-02-09T00:50:16.786Z,-1.70
2018-02-09T00:52:44.538Z,-1.70
2018-02-09T00:55:12.204Z,-1.80
2018-02-09T00:57:39.702Z,-1.90
2018-02-09T01:00:07.155Z,-1.90
2018-02-09T01:02:34.682Z,-1.90
2018-02-09T01:05:02.295Z,-1.80
2018-02-09T01:07:29.905Z,-1.80
2018-02-09T01:09:57.366Z,-1.70
2018-02-09T01:12:25.032Z,-1.80
2018-02-09T01:14:52.510Z,-1.80
2018-02-09T01:17:19.987Z,-1.80
2018-02-09T01:19:47.485Z,-1.80
2018-02-09T01:22:14.959Z,-1.80
2018-02-09T01:24:42.439Z,-1.80
2018-02-09T01:27:10.079Z,-1.80
2018-02-09T01:29:37.542Z,-1.80
2018-02-09T01:32:05.044Z,-1.90
2018-02-09T01:34:32.854Z,-1.80
2018-02-09T01:37:00.324Z,-1.80
2018-02-09T01:39:27.792Z,-1.80
2018-02-09T01:41:55.439Z,-1.80
2018-02-09T01:44:22.915Z,-1.70
2018-02-09T01:46:50.427Z,-1.70
2018-02-09T01:49:17.900Z,-1.80
2018-02-09T01:51:45.647Z,-1.90
2018-02-09T01:54:13.102Z,-1.80
2018-02-09T01:56:40.789Z,-1.80
2018-02-09T01:59:08.261Z,-1.70
2018-02-09T02:01:35.731Z,-1.70
2018-02-09T02:04:03.191Z,-1.70
2018-02-09T02:06:30.679Z,-1.60
2018-02-09T02:08:58.455Z,-1.70
2018-02-09T02:11:26.216Z,-1.80
2018-02-09T02:13:53.674Z,-1.80
2018-02-09T02:16:21.443Z,-1.90
2018-02-09T02:18:48.908Z,-1.80
2018-02-09T02:21:17.263Z,-1.80
2018-02-09T02:23:44.742Z,-1.90
2018-02-09T02:26:12.216Z,-2.00
2018-02-09T02:28:39.952Z,-2.00
2018-02-09T02:31:07.423Z,-2.10
2018-02-09T02:33:35.163Z,-2.10
2018-02-09T02:36:04.155Z,-2.20
2018-02-09T02:38:31.615Z,-2.30
2018-02-09T02:40:59.081Z,-2.20
2018-02-09T02:43:26.835Z,-2.30
2018-02-09T02:45:54.509Z,-2.30
2018-02-09T02:48:22.055Z,-2.30
2018-02-09T02:50:49.823Z,-2.20
2018-02-09T02:53:17.588Z,-2.10
2018-02-09T02:55:45.052Z,-2.00
2018-02-09T02:58:12.528Z,-2.00
2018-02-09T03:00:40.263Z,-2.00
2018-02-09T03:03:07.908Z,-2.10
2018-02-09T03:05:35.379Z,-2.10
2018-02-09T03:08:02.944Z,-2.00
2018-02-09T03:10:30.411Z,-2.00
2018-02-09T03:12:57.878Z,-1.90
2018-02-09T03:15:25.488Z,-1.70
2018-02-09T03:17:53.002Z,-1.60
2018-02-09T03:20:20.498Z,-1.60
2018-02-09T03:22:47.985Z,-1.70
2018-02-09T03:25:15.447Z,-1.80
2018-02-09T03:27:42.921Z,-1.70
2018-02-09T03:30:10.582Z,-1.60
2018-02-09T03:32:38.116Z,-1.60
2018-02-09T03:35:05.595Z,-1.50
2018-02-09T03:37:33.343Z,-1.40
2018-02-09T03:40:00.854Z,-1.30
2018-02-09T03:42:28.320Z,-1.20
2018-02-09T03:44:56.020Z,-1.20
2018-02-09T03:47:23.803Z,-1.10
2018-02-09T03:49:51.294Z,-1.10
2018-02-09T03:52:19.003Z,-1.20
2018-02-09T03:54:46.765Z,-1.20
2018-02-09T03:57:14.235Z,-1.10
2018-02-09T03:59:41.717Z,-1.10
2018-02-09T04:02:09.176Z,-1.00
2018-02-09T04:04:36.686Z,-1.00
2018-02-09T04:07:04.198Z,-1.00
2018-02-09T04:09:31.674Z,-1.20
2018-02-09T04:11:59.176Z,-1.30
2018-02-09T04:14:26.633Z,-1.30
2018-02-09T04:16:54.115Z,-1.10
2018-02-09T04:19:21.582Z,-0.90
2018-02-09T04:21:49.074Z,-0.90
2018-02-09T04:24:16.539Z,-0.90
2018-02-09T04:26:44.013Z,-1.10
2018-02-09T04:29:11.838Z,-1.20
2018-02-09T04:31:39.319Z,-1.20
2018-02-09T04:34:06.995Z,-1.20
2018-02-09T04:36:34.667Z,-1.20
2018-02-09T04:39:02.147Z,-1.10
2018-02-09T04:41:29.602Z,-1.10
2018-02-09T04:43:57.079Z,-1.10
2018-02-09T04:46:24.550Z,-1.10
2018-02-09T04:48:52.035Z,-1.10
2018-02-09T04:51:19.494Z,-1.00
2018-02-09T04:53:46.971Z,-1.00
2018-02-09T04:56:14.715Z,-1.00
2018-02-09T04:58:42.478Z,-1.00
2018-02-09T05:01:09.957Z,-0.90
2018-02-09T05:03:37.703Z,-0.90
2018-02-09T05:06:05.158Z,-0.90
2018-02-09T05:08:32.920Z,-0.90
2018-02-09T05:11:00.387Z,-0.90
2018-02-09T05:13:28.726Z,-0.90
2018-02-09T05:15:56.189Z,-1.00
2018-02-09T05:18:23.770Z,-1.10
2018-02-09T05:20:51.245Z,-1.10
2018-02-09T05:23:19.479Z,-0.90
2018-02-09T05:25:47.264Z,-1.00
2018-02-09T05:28:15.034Z,-0.80
2018-02-09T05:30:42.514Z,-0.80
2018-02-09T05:33:10.255Z,-0.80
2018-02-09T05:35:37.727Z,-0.70
2018-02-09T05:38:05.356Z,-0.70
2018-02-09T05:40:32.823Z,-0.70
2018-02-09T05:43:00.316Z,-0.70
2018-02-09T05:45:27.800Z,-0.70
2018-02-09T05:47:55.485Z,-0.70
2018-02-09T05:50:22.966Z,-0.70
2018-02-09T05:52:50.527Z,-0.70
2018-02-09T05:55:18.160Z,-0.60
2018-02-09T05:57:45.621Z,-0.60
2018-02-09T06:00:13.221Z,-0.60
2018-02-09T06:02:40.692Z,-0.60
2018-02-09T06:05:08.391Z,-0.60
2018-02-09T06:07:35.875Z,-0.60
2018-02-09T06:10:03.361Z,-0.50
2018-02-09T06:12:31.029Z,-0.50
2018-02-09T06:14:58.491Z,-0.50
2018-02-09T06:17:25.968Z,-0.40
2018-02-09T06:19:53.471Z,-0.30
2018-02-09T06:22:21.223Z,-0.30
2018-02-09T06:24:48.867Z,-0.30
2018-02-09T06:27:16.338Z,-0.30
2018-02-09T06:29:43.899Z,-0.30
2018-02-09T06:32:11.363Z,-0.30
2018-02-09T06:34:39.023Z,-0.30
2018-02-09T06:37:06.499Z,-0.30
2018-02-09T06:39:33.975Z,-0.20
2018-02-09T06:42:01.491Z,-0.20
2018-02-09T06:44:29.128Z,-0.20
2018-02-09T06:46:56.715Z,-0.30
2018-02-09T06:49:24.246Z,-0.20
2018-02-09T06:51:51.706Z,-0.10
2018-02-09T06:54:19.327Z,-0.10
2018-02-09T06:56:46.794Z,-0.10
2018-02-09T06:59:14.274Z,-0.10
2018-02-09T07:01:41.751Z,-0.10
2018-02-09T07:04:09.243Z,-0.10
2018-02-09T07:06:36.705Z,-0.10
2018-02-09T07:09:04.436Z,0.00
2018-02-09T07:11:31.892Z,0.00
2018-02-09T07:13:59.376Z,0.00
2018-02-09T07:16:26.835Z,0.00
2018-02-09T07:18:54.562Z,0.00
2018-02-09T07:21:22.331Z,0.10
2018-02-09T07:23:50.091Z,0.10
2018-02-09T07:26:18.427Z,0.10
2018-02-09T07:28:45.931Z,0.10
2018-02-09T07:31:13.595Z,0.20
2018-02-09T07:33:41.197Z,0.20
2018-02-09T07:36:08.665Z,0.30
2018-02-09T07:38:36.151Z,0.30
2018-02-09T07:41:03.615Z,0.30
2018-02-09T07:43:31.210Z,0.30
2018-02-09T07:45:58.687Z,0.30
2018-02-09T07:48:26.213Z,0.20
2018-02-09T07:50:53.858Z,0.20
2018-02-09T07:53:22.135Z,0.20
2018-02-09T07:55:49.799Z,0.20
2018-02-09T07:58:17.316Z,0.20
2018-02-09T08:00:44.788Z,0.20
2018-02-09T08:03:12.471Z,0.20
2018-02-09T08:05:40.166Z,0.30
2018-02-09T08:08:07.637Z,0.40
2018-02-09T08:10:36.013Z,0.40
2018-02-09T08:13:03.531Z,0.30
2018-02-09T08:15:31.291Z,0.40
2018-02-09T08:17:58.759Z,0.60
2018-02-09T08:20:26.986Z,0.70
2018-02-09T08:22:54.511Z,0.70
2018-02-09T08:25:22.041Z,0.60
2018-02-09T08:27:49.530Z,0.60
2018-02-09T08:30:17.115Z,0.60
2018-02-09T08:32:44.864Z,0.60
2018-02-09T08:35:12.380Z,0.60
2018-02-09T08:37:39.939Z,0.60
2018-02-09T08:40:07.622Z,0.60
2018-02-09T08:42:35.155Z,0.70
2018-02-09T08:45:02.623Z,0.80
2018-02-09T08:47:30.366Z,0.90
2018-02-09T08:49:58.144Z,0.90
2018-02-09T08:52:25.603Z,0.90
2018-02-09T08:54:53.063Z,1.00
2018-02-09T08:57:20.571Z,1.00
2018-02-09T08:59:48.186Z,1.10
2018-02-09T09:02:15.663Z,1.20
2018-02-09T09:04:43.134Z,1.20
2018-02-09T09:07:10.601Z,1.20
2018-02-09T09:09:38.080Z,1.30
2018-02-09T09:12:05.547Z,1.30
2018-02-09T09:14:33.371Z,1.30
2018-02-09T09:17:01.077Z,1.30
2018-02-09T09:19:28.847Z,1.20
2018-02-09T09:21:56.341Z,1.10
2018-02-09T09:24:24.067Z,1.20
2018-02-09T09:26:51.831Z,1.20
2018-02-09T09:29:19.313Z,1.30
2018-02-09T09:31:46.788Z,1.20
2018-02-09T09:34:14.267Z,1.10
2018-02-09T09:36:41.883Z,1.10
2018-02-09T09:39:09.423Z,1.10
2018-02-09T09:41:36.882Z,1.20
2018-02-09T09:44:04.506Z,1.30
2018-02-09T09:46:31.979Z,1.30
2018-02-09T09:48:59.947Z,1.40
2018-02-09T09:51:27.610Z,1.50
2018-02-09T09:53:55.072Z,1.50
2018-02-09T09:56:22.575Z,1.60
2018-02-09T09:58:50.215Z,1.70
2018-02-09T10:01:36.303Z,1.70
2018-02-09T10:04:03.797Z,1.70
2018-02-09T10:06:31.331Z,1.70
2018-02-09T10:08:58.824Z,1.80
2018-02-09T10:11:26.330Z,1.80
2018-02-09T10:13:53.795Z,1.90
2018-02-09T10:16:21.555Z,1.90
2018-02-09T10:18:49.020Z,1.90
2018-02-09T10:21:16.767Z,1.90
2018-02-09T10:23:44.222Z,1.90
2018-02-09T10:26:11.983Z,1.90
2018-02-09T10:28:39.632Z,2.00
2018-02-09T10:31:07.103Z,1.90
2018-02-09T10:33:34.567Z,2.00
2018-02-09T10:36:02.140Z,2.10
2018-02-09T10:38:29.801Z,2.10
2018-02-09T10:40:57.307Z,2.10
2018-02-09T10:43:24.781Z,2.10
2018-02-09T10:45:52.250Z,2.10
2018-02-09T10:48:19.720Z,2.00
2018-02-09T10:50:47.194Z,2.00
2018-02-09T10:53:14.923Z,2.10
2018-02-09T10:55:42.379Z,2.10
2018-02-09T10:58:09.854Z,2.10
2018-02-09T11:00:43.051Z,2.10
2018-02-09T11:03:10.597Z,2.10
2018-02-09T11:05:38.111Z,2.10
2018-02-09T11:08:05.590Z,2.20
2018-02-09T11:10:33.054Z,2.20
2018-02-09T11:13:00.568Z,2.30
2018-02-09T11:15:28.016Z,2.30
2018-02-09T11:17:55.762Z,2.30
2018-02-09T11:20:24.024Z,2.30
2018-02-09T11:22:51.491Z,2.30
2018-02-09T11:25:18.964Z,2.40
2018-02-09T11:27:46.723Z,2.50
2018-02-09T11:30:14.187Z,2.60
2018-02-09T11:32:41.654Z,2.70
2018-02-09T11:35:09.292Z,2.70
2018-02-09T11:37:36.755Z,2.80
2018-02-09T11:40:04.304Z,2.80
2018-02-09T11:42:31.746Z,2.80
2018-02-09T11:44:59.230Z,2.80
2018-02-09T11:47:26.707Z,3.00
2018-02-09T11:49:54.185Z,3.10
2018-02-09T11:52:21.648Z,3.10
2018-02-09T11:54:50.145Z,3.00
2018-02-09T11:57:17.763Z,3.00
2018-02-09T11:59:45.251Z,3.10
2018-02-09T12:02:12.943Z,3.10
2018-02-09T12:04:40.686Z,3.20
2018-02-09T12:07:08.146Z,3.20
2018-02-09T12:09:35.915Z,3.20
2018-02-09T12:12:03.677Z,3.20
2018-02-09T12:14:31.194Z,3.30
2018-02-09T12:16:58.804Z,3.40
2018-02-09T12:19:26.351Z,3.40
2018-02-09T12:21:54.924Z,3.40
2018-02-09T12:24:22.415Z,3.40
2018-02-09T12:26:49.886Z,3.50
2018-02-09T12:29:17.347Z,3.50
2018-02-09T12:31:44.859Z,3.50
2018-02-09T12:34:12.503Z,3.60
2018-02-09T12:36:40.084Z,3.60
2018-02-09T12:39:07.752Z,3.60
2018-02-09T12:41:36.134Z,3.60
2018-02-09T12:44:03.635Z,3.60
2018-02-09T12:46:31.095Z,3.60
2018-02-09T12:48:58.559Z,3.60
2018-02-09T12:51:26.067Z,3.70
2018-02-09T12:53:53.811Z,3.80
2018-02-09T12:56:21.267Z,3.80
2018-02-09T12:58:48.924Z,3.90
2018-02-09T13:01:16.415Z,3.90
2018-02-09T13:03:43.883Z,3.90
2018-02-09T13:06:11.335Z,3.90
2018-02-09T13:08:38.799Z,3.90
2018-02-09T13:11:06.255Z,4.00
2018-02-09T13:13:33.776Z,4.00
2018-02-09T13:16:01.240Z,4.10
2018-02-09T13:18:48.354Z,4.10
2018-02-09T13:21:15.815Z,4.10
2018-02-09T13:23:55.021Z,4.10
2018-02-09T13:26:22.701Z,4.00
2018-02-09T13:28:59.067Z,4.10
2018-02-09T13:31:26.822Z,4.10
2018-02-09T13:33:54.393Z,4.10
2018-02-09T13:36:33.566Z,4.10
2018-02-09T13:39:01.109Z,4.00
2018-02-09T13:41:28.635Z,4.00
2018-02-09T13:43:56.148Z,4.00
2018-02-09T13:46:23.783Z,4.10
2018-02-09T13:48:51.239Z,4.20
2018-02-09T13:51:18.773Z,4.20
2018-02-09T13:53:46.228Z,4.20
2018-02-09T13:56:13.699Z,4.10
2018-02-09T13:58:41.160Z,4.10
2018-02-09T14:01:09.524Z,4.10
2018-02-09T14:03:37.139Z,4.10
2018-02-09T14:06:04.668Z,4.10
2018-02-09T14:08:32.128Z,4.10
2018-02-09T14:10:59.651Z,4.10
2018-02-09T14:13:27.107Z,4.20
2018-02-09T14:15:54.615Z,4.30
2018-02-09T14:18:22.254Z,4.20
2018-02-09T14:20:49.787Z,4.10
2018-02-09T14:23:17.552Z,4.10
2018-02-09T14:25:45.015Z,4.10
2018-02-09T14:28:12.670Z,4.20
2018-02-09T14:30:40.233Z,4.10
2018-02-09T14:33:07.688Z,4.10
2018-02-09T14:35:35.168Z,4.10
2018-02-09T14:38:02.826Z,4.10
2018-02-09T14:40:30.355Z,4.20
2018-02-09T14:42:57.822Z,4.20
2018-02-09T14:45:25.575Z,4.20
2018-02-09T14:47:53.220Z,4.20
2018-02-09T14:50:20.799Z,4.10
2018-02-09T14:52:48.446Z,4.10
2018-02-09T14:55:15.895Z,4.10
2018-02-09T14:57:43.386Z,4.10
2018-02-09T15:00:10.847Z,4.10
2018-02-09T15:02:38.309Z,4.00
2018-02-09T15:05:05.844Z,4.10
2018-02-09T15:07:33.308Z,4.10
2018-02-09T15:10:00.811Z,4.00
2018-02-09T15:12:28.280Z,4.10
2018-02-09T15:14:55.855Z,4.00
2018-02-09T15:17:23.331Z,4.00
2018-02-09T15:19:50.783Z,3.90
2018-02-09T15:22:18.264Z,3.80
2018-02-09T15:24:45.799Z,3.80
2018-02-09T15:27:13.264Z,3.80
2018-02-09T15:29:41.022Z,3.80
2018-02-09T15:32:08.483Z,3.90
2018-02-09T15:34:36.243Z,3.90
2018-02-09T15:37:03.778Z,4.00
2018-02-09T15:39:31.247Z,4.00
2018-02-09T15:41:58.702Z,4.00
2018-02-09T15:44:26.167Z,4.10
2018-02-09T15:46:53.707Z,4.10
2018-02-09T15:49:21.286Z,4.10
2018-02-09T15:51:49.051Z,4.20
2018-02-09T15:54:16.518Z,4.10
2018-02-09T15:56:43.975Z,4.10
2018-02-09T15:59:11.452Z,4.10
2018-02-09T16:01:40.046Z,4.20
2018-02-09T16:04:08.660Z,4.20
2018-02-09T16:06:36.230Z,4.20
2018-02-09T16:09:04.510Z,4.20
2018-02-09T16:11:32.058Z,4.20
2018-02-09T16:13:59.864Z,4.20
2018-02-09T16:16:27.424Z,4.20
2018-02-09T16:18:55.865Z,4.20
2018-02-09T16:21:23.411Z,4.20
2018-02-09T16:23:50.967Z,4.20
2018-02-09T16:26:18.544Z,4.20
2018-02-09T16:28:47.873Z,4.20
2018-02-09T16:31:15.441Z,4.20
2018-02-09T16:33:43.063Z,4.20
2018-02-09T16:36:12.381Z,4.10
2018-02-09T16:38:39.936Z,4.20
2018-02-09T16:41:08.292Z,4.10
2018-02-09T16:43:35.810Z,4.20
2018-02-09T16:46:03.340Z,4.20
2018-02-09T16:48:30.868Z,4.20
2018-02-09T16:50:58.480Z,4.20
2018-02-09T16:53:26.077Z,4.20
2018-02-09T16:55:53.658Z,4.20
2018-02-09T16:58:21.178Z,4.10
2018-02-09T17:00:48.697Z,4.10
2018-02-09T17:03:16.257Z,4.10
2018-02-09T17:05:43.832Z,4.10
2018-02-09T17:08:11.418Z,4.10
2018-02-09T17:10:38.997Z,4.10
2018-02-09T17:13:07.336Z,4.20
2018-02-09T17:15:34.869Z,4.10
2018-02-09T17:18:02.419Z,4.10
2018-02-09T17:20:29.943Z,4.10
2018-02-09T17:22:57.531Z,4.10
2018-02-09T17:25:25.053Z,4.10
2018-02-09T17:27:52.732Z,4.10
2018-02-09T17:30:20.571Z,4.10
2018-02-09T17:32:48.110Z,4.20
2018-02-09T17:35:16.421Z,4.20
2018-02-09T17:37:43.920Z,4.20
2018-02-09T17:40:11.415Z,4.00
2018-02-09T17:42:39.724Z,3.90
2018-02-09T17:45:08.040Z,3.90
2018-02-09T17:47:35.746Z,4.00
2018-02-09T17:50:03.316Z,4.00
2018-02-09T17:52:30.843Z,4.00
2018-02-09T17:54:59.165Z,4.00
2018-02-09T17:57:30.108Z,4.10
2018-02-09T17:59:58.608Z,4.10
2018-02-09T18:02:26.401Z,4.10
2018-02-09T18:04:53.949Z,4.00
2018-02-09T18:07:23.203Z,4.00
2018-02-09T18:09:50.771Z,4.00
2018-02-09T18:12:18.839Z,4.10
2018-02-09T18:14:46.588Z,4.10
2018-02-09T18:17:14.837Z,4.10
2018-02-09T18:19:42.427Z,4.10
2018-02-09T18:22:09.964Z,4.10
2018-02-09T18:24:37.501Z,4.10
2018-02-09T18:27:05.068Z,4.10
2018-02-09T18:29:32.628Z,4.10
2018-02-09T18:32:00.147Z,4.10
2018-02-09T18:34:27.744Z,4.10
2018-02-09T18:36:56.044Z,4.20
2018-02-09T18:39:23.643Z,4.10
2018-02-09T18:41:51.150Z,4.00
2018-02-09T18:44:18.722Z,4.00
2018-02-09T18:46:46.956Z,4.10
2018-02-09T18:49:14.471Z,4.00
2018-02-09T18:51:41.984Z,4.10
2018-02-09T18:54:09.509Z,4.00
2018-02-09T18:56:37.033Z,4.00
2018-02-09T18:59:04.634Z,4.00
2018-02-09T19:01:33.557Z,4.00
2018-02-09T19:04:01.847Z,3.90
2018-02-09T19:06:29.783Z,3.90
2018-02-09T19:08:57.396Z,3.90
2018-02-09T19:11:24.971Z,4.00
2018-02-09T19:13:53.548Z,4.00
2018-02-09T19:16:22.566Z,4.00
2018-02-09T19:18:50.106Z,4.00
2018-02-09T19:21:18.309Z,4.00
2018-02-09T19:23:45.839Z,4.10
2018-02-09T19:26:13.364Z,4.10
2018-02-09T19:28:40.896Z,4.10
2018-02-09T19:31:08.391Z,4.10
2018-02-09T19:33:36.329Z,4.00
2018-02-09T19:36:03.881Z,4.00
2018-02-09T19:38:31.670Z,4.00
2018-02-09T19:40:59.190Z,4.10
2018-02-09T19:43:26.764Z,4.00
2018-02-09T19:45:54.347Z,4.10
2018-02-09T19:48:21.947Z,4.10
2018-02-09T19:50:49.509Z,4.10
2018-02-09T19:53:17.050Z,4.10
2018-02-09T19:55:44.561Z,4.10
2018-02-09T19:58:13.769Z,4.00
2018-02-09T20:00:41.304Z,4.00
2018-02-09T20:03:09.886Z,4.00
2018-02-09T20:05:38.236Z,3.90
2018-02-09T20:08:07.723Z,4.00
2018-02-09T20:10:35.279Z,4.00
2018-02-09T20:13:02.865Z,4.00
2018-02-09T20:15:30.369Z,4.00
2018-02-09T20:17:57.924Z,4.00
2018-02-09T20:20:25.505Z,4.00
2018-02-09T20:22:53.082Z,4.00
2018-02-09T20:25:20.652Z,4.00
2018-02-09T20:27:48.176Z,4.00
2018-02-09T20:30:16.475Z,4.00
2018-02-09T20:32:46.923Z,4.10
2018-02-09T20:35:14.440Z,4.00
2018-02-09T20:37:42.021Z,4.00
2018-02-09T20:40:09.545Z,4.00
2018-02-09T20:42:37.910Z,3.80
2018-02-09T20:45:06.319Z,3.90
2018-02-09T20:47:33.839Z,3.80
2018-02-09T20:50:01.413Z,3.90
2018-02-09T20:52:29.016Z,3.90
2018-02-09T20:54:56.577Z,3.90
2018-02-09T20:57:24.108Z,4.00
2018-02-09T20:59:52.887Z,4.00
2018-02-09T21:02:21.869Z,4.00
2018-02-09T21:04:49.404Z,4.00
2018-02-09T21:07:17.009Z,4.00
2018-02-09T21:09:44.534Z,4.00
2018-02-09T21:12:12.034Z,4.00
2018-02-09T21:14:39.543Z,4.00
2018-02-09T21:17:07.048Z,4.00
2018-02-09T21:19:34.536Z,4.00
2018-02-09T21:22:02.085Z,4.00
2018-02-09T21:24:29.610Z,3.90
2018-02-09T21:26:58.733Z,3.90
2018-02-09T21:29:26.671Z,3.90
2018-02-09T21:31:54.953Z,3.90
2018-02-09T21:34:22.546Z,3.90
2018-02-09T21:36:50.297Z,3.90
2018-02-09T21:39:18.491Z,3.90
2018-02-09T21:41:46.018Z,3.90
2018-02-09T21:44:13.574Z,3.90
2018-02-09T21:46:42.838Z,3.90
2018-02-09T21:49:10.694Z,3.90
2018-02-09T21:51:38.311Z,3.90
2018-02-09T21:54:05.838Z,4.00
2018-02-09T21:56:33.401Z,4.00
2018-02-09T21:59:02.210Z,4.00
2018-02-09T22:01:29.788Z,4.00
2018-02-09T22:03:58.141Z,3.90
2018-02-09T22:06:26.588Z,3.90
2018-02-09T22:08:54.035Z,3.90
2018-02-09T22:11:21.510Z,3.90
2018-02-09T22:13:48.983Z,3.80
2018-02-09T22:16:16.530Z,3.80
2018-02-09T22:18:44.162Z,3.80
2018-02-09T22:21:11.646Z,3.80
2018-02-09T22:23:39.191Z,3.90
2018-02-09T22:26:06.663Z,3.90
2018-02-09T22:28:34.441Z,3.90
2018-02-09T22:31:01.891Z,4.00
2018-02-09T22:33:29.535Z,3.90
2018-02-09T22:35:57.105Z,3.90
2018-02-09T22:38:24.854Z,3.90
2018-02-09T22:40:52.615Z,3.90
2018-02-09T22:43:20.079Z,3.90
2018-02-09T22:45:47.556Z,3.80
2018-02-09T22:48:15.295Z,3.80
2018-02-09T22:50:42.955Z,3.80
2018-02-09T22:53:10.515Z,3.90
2018-02-09T22:55:38.285Z,3.90
2018-02-09T22:58:06.047Z,3.80
2018-02-09T23:00:33.811Z,3.70
2018-02-09T23:03:01.576Z,3.80
2018-02-09T23:05:29.391Z,3.80
2018-02-09T23:07:57.019Z,3.80
2018-02-09T23:10:24.483Z,3.70
2018-02-09T23:12:51.938Z,3.70
2018-02-09T23:15:19.485Z,3.60
2018-02-09T23:17:47.238Z,3.60
2018-02-09T23:20:14.719Z,3.70
2018-02-09T23:22:42.179Z,3.70
2018-02-09T23:25:09.915Z,3.80
2018-02-09T23:27:37.395Z,3.70
2018-02-09T23:30:05.004Z,3.80
2018-02-09T23:32:32.619Z,3.80
2018-02-09T23:35:00.259Z,3.90
2018-02-09T23:37:28.615Z,3.90
2018-02-09T23:39:56.148Z,3.90
2018-02-09T23:42:23.652Z,3.90
2018-02-09T23:44:51.127Z,3.80
2018-02-09T23:47:18.723Z,3.80
2018-02-09T23:49:46.327Z,3.80
2018-02-09T23:52:13.811Z,3.80
2018-02-09T23:54:41.266Z,3.70
2018-02-09T23:57:08.731Z,3.70
2018-02-09T23:59:36.607Z,3.80
